Nearby METAR Reports

 

KMTN - Baltimore/Martin, Maryland, USA
Distance from station: SSE 8mi, 13km
Updated: Sun, 19-Apr-2015 12:36am EDT
Clear
Clear
 Wind from calm
Wind: Calm
Temperature: 63°F , 17°C
Dew Point: 52°F , 11°C
Humidity: 68%
Barometer: 30.02 inHg , 1016.6 hPa
Clouds: Clear
Visibility: 10 miles , 16 km
2015/04/19 04:36 KMTN 190436Z AUTO 00000KT 10SM CLR 17/11 A3002 RMK AO2
KDMH - Baltimore/Dwntwn, Maryland, USA
Distance from station: SW 12mi, 19km
Updated: Sat, 18-Apr-2015 11:54pm EDT

 
Temperature: 70°F , 21°C
Dew Point: 46°F , 8°C
Humidity: 43%
Barometer: 30.01 inHg , 1016.3 hPa
2015/04/19 03:54 KDMH 190354Z AUTO 21/08 A3001 RMK AO1 SLP160 T02060083
 
KBWI - Balto/Wash Intl, Maryland, USA
Distance from station: SSW 20mi, 33km
Updated: Sat, 18-Apr-2015 11:54pm EDT
Mostly cloudy
Mostly cloudy
 Wind from WSW
Wind: WSW 3 mph , 6 km/h
Temperature: 64°F , 18°C
Dew Point: 46°F , 8°C
Humidity: 52%
Barometer: 30.00 inHg , 1015.9 hPa
Clouds: Mostly cloudy
Visibility: 10 miles , 16 km
Cloud details: Mostly cloudy 25000 ft
2015/04/19 03:54 KBWI 190354Z 24003KT 10SM BKN250 18/08 A3000 RMK AO2 SLP159 T01830083
KDMW - Carroll Cnty, Maryland, USA
Distance from station: WNW 30mi, 48km
Updated: Sun, 19-Apr-2015 12:25am EDT
Partly cloudy
Partly cloudy
 Wind from NE
Wind: NE 9 mph , 15 km/h
Temperature: 66°F , 19°C
Dew Point: 43°F , 6°C
Humidity: 43%
Barometer: 30.04 inHg , 1017.3 hPa
Clouds: Partly cloudy
Visibility: 10 miles , 16 km
Cloud details: Partly cloudy 9000 ft
2015/04/19 04:25 KDMW 190425Z AUTO 05008KT 10SM SCT090 19/06 A3004 RMK AO2
 
KNAK - Annapolis/Naval, Maryland, USA
Distance from station: S 30mi, 48km
Updated: Sat, 18-Apr-2015 11:54pm EDT
Clear
Clear
 Wind from calm
Wind: Calm
Temperature: 61°F , 16°C
Dew Point: 54°F , 12°C
Humidity: 77%
Barometer: 30.00 inHg , 1015.9 hPa
Clouds: Clear
Visibility: 10 miles , 16 km
2015/04/19 03:54 KNAK 190354Z AUTO 00000KT 10SM CLR 16/12 A3000 RMK AO2 SLP161 T01560122
KW29 - Stevensville, Maryland, USA
Distance from station: SSE 31mi, 50km
Updated: Sun, 19-Apr-2015 12:28am EDT

 Wind from S
Wind: S 3 mph , 6 km/h
Temperature: 64°F , 18°C
Dew Point: 46°F , 8°C
Humidity: 52%
Barometer: 30.01 inHg , 1016.3 hPa
Visibility: 10 miles , 16 km
2015/04/19 04:28 KW29 190428Z AUTO 18003KT 10SM 18/08 A3001 RMK AO1
 
KCGS - College Park, Maryland, USA
Distance from station: SW 38mi, 61km
Updated: Sun, 19-Apr-2015 12:25am EDT
Clear
Clear
 Wind from calm
Wind: Calm
Temperature: 59°F , 15°C
Dew Point: 50°F , 10°C
Humidity: 72%
Barometer: 30.02 inHg , 1016.6 hPa
Clouds: Clear
Visibility: 5 miles , 8 km
2015/04/19 04:25 KCGS 190425Z AUTO 00000KT 5SM CLR 15/10 A3002 RMK AO1
KGAI - Gaithersburg, Maryland, USA
Distance from station: WSW 40mi, 65km
Updated: Sun, 19-Apr-2015 12:15am EDT
Clear
Clear
 Wind from calm
Wind: Calm
Temperature: 59°F , 15°C
Dew Point: 45°F , 7°C
Humidity: 59%
Barometer: 30.06 inHg , 1017.9 hPa
Clouds: Clear
Visibility: 10 miles , 16 km
2015/04/19 04:15 KGAI 190415Z AUTO 00000KT 10SM CLR 15/07 A3006 RMK AO1
 
KTHV - York, Pennsylvania, USA
Distance from station: NNW 40mi, 65km
Updated: Sat, 18-Apr-2015 11:53pm EDT
Clear
Clear
 Wind from NE
Wind: NE 5 mph , 7 km/h
Temperature: 64°F , 18°C
Dew Point: 43°F , 6°C
Humidity: 46%
Barometer: 30.06 inHg , 1017.9 hPa
Clouds: Clear
Visibility: 10 miles , 16 km
2015/04/19 03:53 KTHV 190353Z AUTO 05004KT 10SM CLR 18/06 A3006 RMK AO2 SLP177 T01830056
KFDK - Frederick, Maryland, USA
Distance from station: W 47mi, 75km
Updated: Sun, 19-Apr-2015 12:25am EDT
Clear
Clear
 Wind from N
Wind: N 9 mph , 15 km/h
Temperature: 59°F , 15°C
Dew Point: 50°F , 10°C
Humidity: 72%
Barometer: 30.05 inHg , 1017.6 hPa
Clouds: Clear
Visibility: 10 miles , 16 km
2015/04/19 04:25 KFDK 190425Z AUTO 01008KT 10SM CLR 15/10 A3005 RMK AO2
 
KESN - Easton/Newnam, Maryland, USA
Distance from station: SSE 48mi, 78km
Updated: Sun, 19-Apr-2015 12:45am EDT
Clear
Clear
 Wind from SW
Wind: SW 6 mph , 9 km/h
Temperature: 63°F , 17°C
Dew Point: 57°F , 14°C
Humidity: 83%
Barometer: 30.05 inHg , 1017.6 hPa
Clouds: Clear
Visibility: 10 miles , 16 km
2015/04/19 04:45 KESN 190445Z AUTO 23005KT 10SM CLR 17/14 A3005 RMK AO2 T01670142
KDCA - Washington/Natl, Washington D.c., USA
Distance from station: SW 49mi, 79km
Updated: Sat, 18-Apr-2015 11:52pm EDT
Mostly cloudy
Mostly cloudy
 Wind from SSW
Wind: SSW 3 mph , 6 km/h
Temperature: 66°F , 19°C
Dew Point: 48°F , 9°C
Humidity: 52%
Barometer: 30.02 inHg , 1016.6 hPa
Clouds: Mostly cloudy
Visibility: 10 miles , 16 km
Cloud details: Mostly cloudy 25000 ft
2015/04/19 03:52 KDCA 190352Z 20003KT 10SM BKN250 19/09 A3002 RMK AO2 SLP164 T01940094 $
 
KLNS - Lancaster, Pennsylvania, USA
Distance from station: N 49mi, 79km
Updated: Sat, 18-Apr-2015 11:53pm EDT
Clear
Clear
 Wind from NE
Wind: NE 12 mph , 19 km/h
Temperature: 63°F , 17°C
Dew Point: 34°F , 1°C
Humidity: 34%
Barometer: 30.05 inHg , 1017.6 hPa
Clouds: Clear
Visibility: 10 miles , 16 km
2015/04/19 03:53 KLNS 190353Z AUTO 05010KT 10SM CLR 17/01 A3005 RMK AO2 SLP174 T01670006
KILG - Wilmington, Delaware, USA
Distance from station: ENE 50mi, 81km
Updated: Sat, 18-Apr-2015 11:51pm EDT
Clear
Clear
 Wind from N
Wind: N 8 mph , 13 km/h
Temperature: 64°F , 18°C
Dew Point: 45°F , 7°C
Humidity: 49%
Barometer: 30.03 inHg , 1016.9 hPa
Clouds: Clear
Visibility: 10 miles , 16 km
2015/04/19 03:51 KILG 190351Z AUTO 35007KT 10SM CLR 18/07 A3003 RMK AO2 SLP170 T01830072